Station Historical Data
Daily Summary for July 6, 2017 Units:  Both    English   Metric
« Previous Day
Next Day »
Daily Weekly Monthly Yearly Custom
  High: Low: Average:
Temperature: 86.5 °F /  30.3 °C 67.2 °F /  19.6 °C 76.2 °F /  24.6 °C
Dew Point: 69.6 °F /  20.9 °C 57.3 °F /  14.1 °C 63.8 °F /  17.7 °C
Humidity: 87% 38% 67%
Wind Speed: 7.0mph /  11.3km/h - 2.5mph /  4km/h
Wind Gust: 12.0mph /  19.3km/h - -
Wind- - SW
Pressure: 30.05 in /  1017.5 hPa 29.85 in /  1010.7 hPa -
Precipitation: 0.00 in /  0 mm    
Historical Graphs
 
 
Tabular Data for July 6, 2017
Time Temperature Dew Point Pressure Wind Wind Speed Wind Gust Humidity Rainfall Rate (Hourly)
00:04 69.6 °F /  20.9 °C 59.8 °F /  15.4 °C 30.04in /  1017.2hPa Calm     71% 0.00in /  0mm
00:09 69.5 °F /  20.8 °C 60.1 °F /  15.6 °C 30.05in /  1017.5hPa Calm     72% 0.00in /  0mm
00:14 69.5 °F /  20.8 °C 60.1 °F /  15.6 °C 30.04in /  1017.2hPa Calm     72% 0.00in /  0mm
00:19 69.5 °F /  20.8 °C 60.1 °F /  15.6 °C 30.04in /  1017.2hPa Calm     72% 0.00in /  0mm
00:24 69.4 °F /  20.8 °C 60.0 °F /  15.6 °C 30.04in /  1017.2hPa Calm     72% 0.00in /  0mm
00:29 69.0 °F /  20.6 °C 60.0 °F /  15.6 °C 30.04in /  1017.2hPa Calm     73% 0.00in /  0mm
00:34 68.8 °F /  20.4 °C 60.2 °F /  15.7 °C 30.04in /  1017.2hPa Calm     74% 0.00in /  0mm
00:39 68.7 °F /  20.4 °C 60.1 °F /  15.6 °C 30.04in /  1017.2hPa Calm     74% 0.00in /  0mm
00:44 68.6 °F /  20.3 °C 60.0 °F /  15.6 °C 30.03in /  1016.8hPa Calm     74% 0.00in /  0mm
00:49 68.8 °F /  20.4 °C 60.2 °F /  15.7 °C 30.04in /  1017.2hPa Calm     74% 0.00in /  0mm
00:54 69.1 °F /  20.6 °C 60.5 °F /  15.8 °C 30.03in /  1016.8hPa Calm     74% 0.00in /  0mm
00:59 69.5 °F /  20.8 °C 60.8 °F /  16 °C 30.03in /  1016.8hPa Calm     74% 0.00in /  0mm
01:04 69.6 °F /  20.9 °C 61.3 °F /  16.3 °C 30.03in /  1016.8hPa Calm     75% 0.00in /  0mm
01:09 69.5 °F /  20.8 °C 61.6 °F /  16.4 °C 30.03in /  1016.8hPa Calm     76% 0.00in /  0mm
01:14 69.3 °F /  20.7 °C 61.4 °F /  16.3 °C 30.03in /  1016.8hPa Calm     76% 0.00in /  0mm
01:19 69.0 °F /  20.6 °C 61.5 °F /  16.4 °C 30.03in /  1016.8hPa Calm     77% 0.00in /  0mm
01:24 68.8 °F /  20.4 °C 61.7 °F /  16.5 °C 30.03in /  1016.8hPa Calm     78% 0.00in /  0mm
01:29 68.8 °F /  20.4 °C 61.7 °F /  16.5 °C 30.03in /  1016.8hPa Calm     78% 0.00in /  0mm
01:34 68.9 °F /  20.5 °C 62.1 °F /  16.7 °C 30.03in /  1016.8hPa Calm     79% 0.00in /  0mm
01:39 68.8 °F /  20.4 °C 62.0 °F /  16.7 °C 30.03in /  1016.8hPa Calm     79% 0.00in /  0mm
01:44 68.8 °F /  20.4 °C 62.0 °F /  16.7 °C 30.03in /  1016.8hPa Calm     79% 0.00in /  0mm
01:49 68.8 °F /  20.4 °C 62.0 °F /  16.7 °C 30.03in /  1016.8hPa Calm     79% 0.00in /  0mm
01:54 68.9 °F /  20.5 °C 62.5 °F /  16.9 °C 30.02in /  1016.5hPa Calm   2.0mph /  3.2km/h 80% 0.00in /  0mm
01:59 69.2 °F /  20.7 °C 63.1 °F /  17.3 °C 30.02in /  1016.5hPa Calm   2.0mph /  3.2km/h 81% 0.00in /  0mm
02:04 69.1 °F /  20.6 °C 63.0 °F /  17.2 °C 30.02in /  1016.5hPa Calm   1.0mph /  1.6km/h 81% 0.00in /  0mm
02:09 69.2 °F /  20.7 °C 63.5 °F /  17.5 °C 30.02in /  1016.5hPa Calm     82% 0.00in /  0mm
02:14 69.3 °F /  20.7 °C 63.9 °F /  17.7 °C 30.02in /  1016.5hPa Calm   3.0mph /  4.8km/h 83% 0.00in /  0mm
02:19 69.6 °F /  20.9 °C 64.2 °F /  17.9 °C 30.02in /  1016.5hPa SSW 1.0mph /  1.6km/h 3.0mph /  4.8km/h 83% 0.00in /  0mm
02:24 69.8 °F /  21 °C 64.4 °F /  18 °C 30.02in /  1016.5hPa Calm   3.0mph /  4.8km/h 83% 0.00in /  0mm
02:29 70.1 °F /  21.2 °C 64.7 °F /  18.2 °C 30.02in /  1016.5hPa SW 1.0mph /  1.6km/h 5.0mph /  8km/h 83% 0.00in /  0mm
02:34 70.5 °F /  21.4 °C 65.1 °F /  18.4 °C 30.02in /  1016.5hPa SSW 1.0mph /  1.6km/h 5.0mph /  8km/h 83% 0.00in /  0mm
02:39 70.8 °F /  21.6 °C 65.0 °F /  18.3 °C 30.02in /  1016.5hPa SW 1.0mph /  1.6km/h 3.0mph /  4.8km/h 82% 0.00in /  0mm
02:44 70.7 °F /  21.5 °C 64.9 °F /  18.3 °C 30.02in /  1016.5hPa SW 1.0mph /  1.6km/h 3.0mph /  4.8km/h 82% 0.00in /  0mm
02:49 70.7 °F /  21.5 °C 64.9 °F /  18.3 °C 30.01in /  1016.1hPa WSW 1.0mph /  1.6km/h 4.0mph /  6.4km/h 82% 0.00in /  0mm
02:54 70.9 °F /  21.6 °C 65.1 °F /  18.4 °C 30.02in /  1016.5hPa SW 2.0mph /  3.2km/h 5.0mph /  8km/h 82% 0.00in /  0mm
02:59 70.8 °F /  21.6 °C 65.0 °F /  18.3 °C 30.01in /  1016.1hPa SW 2.0mph /  3.2km/h 5.0mph /  8km/h 82% 0.00in /  0mm
03:04 70.8 °F /  21.6 °C 64.7 °F /  18.2 °C 30.01in /  1016.1hPa SSW 1.0mph /  1.6km/h 4.0mph /  6.4km/h 81% 0.00in /  0mm
03:09 70.7 °F /  21.5 °C 64.6 °F /  18.1 °C 30.01in /  1016.1hPa Calm   4.0mph /  6.4km/h 81% 0.00in /  0mm
03:14 70.6 °F /  21.4 °C 64.8 °F /  18.2 °C 30.01in /  1016.1hPa SW 1.0mph /  1.6km/h 2.0mph /  3.2km/h 82% 0.00in /  0mm
03:19 70.6 °F /  21.4 °C 64.8 °F /  18.2 °C 30.01in /  1016.1hPa SW 1.0mph /  1.6km/h 5.0mph /  8km/h 82% 0.00in /  0mm
03:24 70.7 °F /  21.5 °C 64.9 °F /  18.3 °C 30.01in /  1016.1hPa Calm   5.0mph /  8km/h 82% 0.00in /  0mm
03:29 70.6 °F /  21.4 °C 64.5 °F /  18.1 °C 30.01in /  1016.1hPa WSW 3.0mph /  4.8km/h 3.0mph /  4.8km/h 81% 0.00in /  0mm
03:34 70.5 °F /  21.4 °C 64.7 °F /  18.2 °C 30.01in /  1016.1hPa Calm   3.0mph /  4.8km/h 82% 0.00in /  0mm
03:39 70.4 °F /  21.3 °C 64.3 °F /  17.9 °C 30.01in /  1016.1hPa SW 1.0mph /  1.6km/h 3.0mph /  4.8km/h 81% 0.00in /  0mm
03:44 70.3 °F /  21.3 °C 64.2 °F /  17.9 °C 30.01in /  1016.1hPa SW 1.0mph /  1.6km/h 4.0mph /  6.4km/h 81% 0.00in /  0mm
03:49 70.3 °F /  21.3 °C 64.2 °F /  17.9 °C 30.00in /  1015.8hPa SW 1.0mph /  1.6km/h 6.0mph /  9.7km/h 81% 0.00in /  0mm
03:54 70.3 °F /  21.3 °C 64.5 °F /  18.1 °C 30.01in /  1016.1hPa SW 1.0mph /  1.6km/h 6.0mph /  9.7km/h 82% 0.00in /  0mm
03:59 70.3 °F /  21.3 °C 64.2 °F /  17.9 °C 30.00in /  1015.8hPa SW 1.0mph /  1.6km/h 3.0mph /  4.8km/h 81% 0.00in /  0mm
04:04 70.5 °F /  21.4 °C 64.4 °F /  18 °C 30.00in /  1015.8hPa SW 2.0mph /  3.2km/h 4.0mph /  6.4km/h 81% 0.00in /  0mm
04:09 70.5 °F /  21.4 °C 64.4 °F /  18 °C 30.00in /  1015.8hPa SW 1.0mph /  1.6km/h 5.0mph /  8km/h 81% 0.00in /  0mm
04:14 70.5 °F /  21.4 °C 64.4 °F /  18 °C 30.00in /  1015.8hPa SW 1.0mph /  1.6km/h 5.0mph /  8km/h 81% 0.00in /  0mm
04:19 70.4 °F /  21.3 °C 64.3 °F /  17.9 °C 30.00in /  1015.8hPa Calm   4.0mph /  6.4km/h 81% 0.00in /  0mm
04:24 70.4 °F /  21.3 °C 64.3 °F /  17.9 °C 30.00in /  1015.8hPa SW 2.0mph /  3.2km/h 3.0mph /  4.8km/h 81% 0.00in /  0mm
04:29 70.1 °F /  21.2 °C 64.0 °F /  17.8 °C 30.00in /  1015.8hPa SW 1.0mph /  1.6km/h 3.0mph /  4.8km/h 81% 0.00in /  0mm
04:34 69.9 °F /  21.1 °C 64.2 °F /  17.9 °C 30.00in /  1015.8hPa Calm   3.0mph /  4.8km/h 82% 0.00in /  0mm
04:39 69.8 °F /  21 °C 64.1 °F /  17.8 °C 30.00in /  1015.8hPa Calm   3.0mph /  4.8km/h 82% 0.00in /  0mm
04:44 69.6 °F /  20.9 °C 63.9 °F /  17.7 °C 30.00in /  1015.8hPa Calm     82% 0.00in /  0mm
04:49 69.5 °F /  20.8 °C 63.8 °F /  17.7 °C 30.00in /  1015.8hPa Calm     82% 0.00in /  0mm
05:05 69.2 °F /  20.7 °C 63.8 °F /  17.7 °C 30.00in /  1015.8hPa Calm   2.0mph /  3.2km/h 83% 0.00in /  0mm
05:15 68.9 °F /  20.5 °C 63.5 °F /  17.5 °C 30.00in /  1015.8hPa Calm   2.0mph /  3.2km/h 83% 0.00in /  0mm
05:24 68.4 °F /  20.2 °C 63.4 °F /  17.4 °C 30.00in /  1015.8hPa Calm     84% 0.00in /  0mm
05:25 68.4 °F /  20.2 °C 63.4 °F /  17.4 °C 30.00in /  1015.8hPa Calm     84% 0.00in /  0mm
05:29 68.0 °F /  20 °C 63.0 °F /  17.2 °C 30.00in /  1015.8hPa Calm     84% 0.00in /  0mm
05:34 67.9 °F /  19.9 °C 63.2 °F /  17.3 °C 30.00in /  1015.8hPa Calm     85% 0.00in /  0mm
05:39 67.7 °F /  19.8 °C 63.4 °F /  17.4 °C 30.00in /  1015.8hPa Calm     86% 0.00in /  0mm
05:44 67.6 °F /  19.8 °C 63.3 °F /  17.4 °C 30.00in /  1015.8hPa Calm     86% 0.00in /  0mm
05:49 67.5 °F /  19.7 °C 63.2 °F /  17.3 °C 30.00in /  1015.8hPa Calm     86% 0.00in /  0mm
05:54 67.3 °F /  19.6 °C 63.0 °F /  17.2 °C 30.00in /  1015.8hPa Calm     86% 0.00in /  0mm
05:59 67.3 °F /  19.6 °C 63.0 °F /  17.2 °C 30.00in /  1015.8hPa Calm     86% 0.00in /  0mm
06:04 67.3 °F /  19.6 °C 63.0 °F /  17.2 °C 30.00in /  1015.8hPa Calm     86% 0.00in /  0mm
06:09 67.2 °F /  19.6 °C 63.2 °F /  17.3 °C 30.00in /  1015.8hPa Calm     87% 0.00in /  0mm
06:14 67.4 °F /  19.7 °C 63.4 °F /  17.4 °C 30.00in /  1015.8hPa Calm   1.0mph /  1.6km/h 87% 0.00in /  0mm
06:19 67.5 °F /  19.7 °C 63.5 °F /  17.5 °C 30.00in /  1015.8hPa Calm     87% 0.00in /  0mm
06:24 67.6 °F /  19.8 °C 63.3 °F /  17.4 °C 30.00in /  1015.8hPa Calm     86% 0.00in /  0mm
06:29 67.9 °F /  19.9 °C 63.9 °F /  17.7 °C 30.00in /  1015.8hPa Calm     87% 0.00in /  0mm
06:34 68.3 °F /  20.2 °C 63.9 °F /  17.7 °C 30.00in /  1015.8hPa Calm     86% 0.00in /  0mm
06:39 68.5 °F /  20.3 °C 64.1 °F /  17.8 °C 30.00in /  1015.8hPa Calm     86% 0.00in /  0mm
06:44 68.8 °F /  20.4 °C 64.1 °F /  17.8 °C 30.00in /  1015.8hPa Calm   3.0mph /  4.8km/h 85% 0.00in /  0mm
06:49 69.3 °F /  20.7 °C 64.6 °F /  18.1 °C 30.00in /  1015.8hPa Calm   3.0mph /  4.8km/h 85% 0.00in /  0mm
06:54 69.7 °F /  20.9 °C 64.6 °F /  18.1 °C 30.00in /  1015.8hPa Calm   3.0mph /  4.8km/h 84% 0.00in /  0mm
06:59 70.1 °F /  21.2 °C 65.0 °F /  18.3 °C 30.00in /  1015.8hPa Calm   2.0mph /  3.2km/h 84% 0.00in /  0mm
07:04 70.5 °F /  21.4 °C 65.1 °F /  18.4 °C 29.99in /  1015.5hPa SW 2.0mph /  3.2km/h 4.0mph /  6.4km/h 83% 0.00in /  0mm
07:09 70.8 °F /  21.6 °C 65.0 °F /  18.3 °C 29.99in /  1015.5hPa SW 1.0mph /  1.6km/h 4.0mph /  6.4km/h 82% 0.00in /  0mm
07:14 71.1 °F /  21.7 °C 65.0 °F /  18.3 °C 30.00in /  1015.8hPa SSW 1.0mph /  1.6km/h 4.0mph /  6.4km/h 81% 0.00in /  0mm
07:19 71.2 °F /  21.8 °C 65.1 °F /  18.4 °C 30.00in /  1015.8hPa SW 1.0mph /  1.6km/h 4.0mph /  6.4km/h 81% 0.00in /  0mm
07:24 71.3 °F /  21.8 °C 65.2 °F /  18.4 °C 30.00in /  1015.8hPa SW 2.0mph /  3.2km/h 6.0mph /  9.7km/h 81% 0.00in /  0mm
07:29 71.5 °F /  21.9 °C 65.0 °F /  18.3 °C 30.00in /  1015.8hPa SW 1.0mph /  1.6km/h 4.0mph /  6.4km/h 80% 0.00in /  0mm
07:34 71.7 °F /  22.1 °C 65.2 °F /  18.4 °C 30.00in /  1015.8hPa Calm   4.0mph /  6.4km/h 80% 0.00in /  0mm
07:39 71.9 °F /  22.2 °C 65.4 °F /  18.6 °C 30.00in /  1015.8hPa WSW 2.0mph /  3.2km/h 5.0mph /  8km/h 80% 0.00in /  0mm
07:44 72.0 °F /  22.2 °C 65.5 °F /  18.6 °C 30.00in /  1015.8hPa WSW 2.0mph /  3.2km/h 4.0mph /  6.4km/h 80% 0.00in /  0mm
07:49 72.2 °F /  22.3 °C 65.7 °F /  18.7 °C 30.00in /  1015.8hPa SW 3.0mph /  4.8km/h 4.0mph /  6.4km/h 80% 0.00in /  0mm
07:54 72.8 °F /  22.7 °C 65.9 °F /  18.8 °C 30.01in /  1016.1hPa Calm   3.0mph /  4.8km/h 79% 0.00in /  0mm
07:59 73.5 °F /  23.1 °C 66.2 °F /  19 °C 30.00in /  1015.8hPa SSW 5.0mph /  8km/h 5.0mph /  8km/h 78% 0.00in /  0mm
08:04 74.0 °F /  23.3 °C 66.3 °F /  19.1 °C 30.01in /  1016.1hPa SSW 5.0mph /  8km/h 8.0mph /  12.9km/h 77% 0.00in /  0mm
08:09 74.2 °F /  23.4 °C 66.1 °F /  18.9 °C 30.01in /  1016.1hPa SW 4.0mph /  6.4km/h 8.0mph /  12.9km/h 76% 0.00in /  0mm
08:14 74.4 °F /  23.6 °C 66.3 °F /  19.1 °C 30.01in /  1016.1hPa SW 4.0mph /  6.4km/h 9.0mph /  14.5km/h 76% 0.00in /  0mm
08:19 74.9 °F /  23.8 °C 66.4 °F /  19.1 °C 30.01in /  1016.1hPa SW 3.0mph /  4.8km/h 9.0mph /  14.5km/h 75% 0.00in /  0mm
08:24 75.1 °F /  23.9 °C 66.6 °F /  19.2 °C 30.01in /  1016.1hPa WSW 3.0mph /  4.8km/h 7.0mph /  11.3km/h 75% 0.00in /  0mm
08:29 75.3 °F /  24.1 °C 66.8 °F /  19.3 °C 30.01in /  1016.1hPa WSW 4.0mph /  6.4km/h 9.0mph /  14.5km/h 75% 0.00in /  0mm
08:34 75.2 °F /  24 °C 66.7 °F /  19.3 °C 30.01in /  1016.1hPa WSW 5.0mph /  8km/h 9.0mph /  14.5km/h 75% 0.00in /  0mm
08:39 75.5 °F /  24.2 °C 66.6 °F /  19.2 °C 30.01in /  1016.1hPa SW 3.0mph /  4.8km/h 7.0mph /  11.3km/h 74% 0.00in /  0mm
08:44 75.6 °F /  24.2 °C 66.7 °F /  19.3 °C 30.01in /  1016.1hPa South 4.0mph /  6.4km/h 8.0mph /  12.9km/h 74% 0.00in /  0mm
08:49 75.5 °F /  24.2 °C 67.0 °F /  19.4 °C 30.01in /  1016.1hPa WSW 5.0mph /  8km/h 7.0mph /  11.3km/h 75% 0.00in /  0mm
08:54 76.0 °F /  24.4 °C 67.1 °F /  19.5 °C 30.01in /  1016.1hPa SW 3.0mph /  4.8km/h 6.0mph /  9.7km/h 74% 0.00in /  0mm
08:59 76.5 °F /  24.7 °C 66.8 °F /  19.3 °C 30.01in /  1016.1hPa West 6.0mph /  9.7km/h 7.0mph /  11.3km/h 72% 0.00in /  0mm
09:04 76.4 °F /  24.7 °C 67.1 °F /  19.5 °C 30.01in /  1016.1hPa WSW 4.0mph /  6.4km/h 7.0mph /  11.3km/h 73% 0.00in /  0mm
09:09 76.6 °F /  24.8 °C 66.9 °F /  19.4 °C 30.01in /  1016.1hPa SW 4.0mph /  6.4km/h 10.0mph /  16.1km/h 72% 0.00in /  0mm
09:14 76.7 °F /  24.8 °C 67.4 °F /  19.7 °C 30.01in /  1016.1hPa WSW 5.0mph /  8km/h 10.0mph /  16.1km/h 73% 0.00in /  0mm
09:19 76.7 °F /  24.8 °C 67.0 °F /  19.4 °C 30.01in /  1016.1hPa WSW 5.0mph /  8km/h 8.0mph /  12.9km/h 72% 0.00in /  0mm
09:24 77.0 °F /  25 °C 67.3 °F /  19.6 °C 30.01in /  1016.1hPa WSW 5.0mph /  8km/h 8.0mph /  12.9km/h 72% 0.00in /  0mm
09:29 77.4 °F /  25.2 °C 67.7 °F /  19.8 °C 30.01in /  1016.1hPa WSW 3.0mph /  4.8km/h 9.0mph /  14.5km/h 72% 0.00in /  0mm
09:34 76.8 °F /  24.9 °C 67.1 °F /  19.5 °C 30.01in /  1016.1hPa SW 4.0mph /  6.4km/h 9.0mph /  14.5km/h 72% 0.00in /  0mm
09:39 77.1 °F /  25.1 °C 67.4 °F /  19.7 °C 30.01in /  1016.1hPa SW 5.0mph /  8km/h 9.0mph /  14.5km/h 72% 0.00in /  0mm
09:44 77.4 °F /  25.2 °C 68.1 °F /  20.1 °C 30.00in /  1015.8hPa West 4.0mph /  6.4km/h 10.0mph /  16.1km/h 73% 0.00in /  0mm
09:49 77.5 °F /  25.3 °C 67.8 °F /  19.9 °C 30.01in /  1016.1hPa SW 2.0mph /  3.2km/h 10.0mph /  16.1km/h 72% 0.00in /  0mm
09:54 78.2 °F /  25.7 °C 68.0 °F /  20 °C 30.00in /  1015.8hPa SW 6.0mph /  9.7km/h 10.0mph /  16.1km/h 71% 0.00in /  0mm
09:59 77.7 °F /  25.4 °C 67.5 °F /  19.7 °C 30.00in /  1015.8hPa SW 7.0mph /  11.3km/h 9.0mph /  14.5km/h 71% 0.00in /  0mm
10:04 78.3 °F /  25.7 °C 68.1 °F /  20.1 °C 30.00in /  1015.8hPa SW 5.0mph /  8km/h 9.0mph /  14.5km/h 71% 0.00in /  0mm
10:09 77.5 °F /  25.3 °C 67.4 °F /  19.7 °C 30.00in /  1015.8hPa SW 5.0mph /  8km/h 9.0mph /  14.5km/h 71% 0.00in /  0mm
10:14 77.4 °F /  25.2 °C 67.3 °F /  19.6 °C 30.00in /  1015.8hPa WSW 4.0mph /  6.4km/h 9.0mph /  14.5km/h 71% 0.00in /  0mm
10:19 78.3 °F /  25.7 °C 68.1 °F /  20.1 °C 30.00in /  1015.8hPa SW 3.0mph /  4.8km/h 9.0mph /  14.5km/h 71% 0.00in /  0mm
10:24 77.9 °F /  25.5 °C 67.3 °F /  19.6 °C 30.00in /  1015.8hPa WSW 4.0mph /  6.4km/h 8.0mph /  12.9km/h 70% 0.00in /  0mm
10:29 78.2 °F /  25.7 °C 67.6 °F /  19.8 °C 30.00in /  1015.8hPa WSW 6.0mph /  9.7km/h 10.0mph /  16.1km/h 70% 0.00in /  0mm
10:34 78.0 °F /  25.6 °C 67.8 °F /  19.9 °C 30.00in /  1015.8hPa SW 5.0mph /  8km/h 10.0mph /  16.1km/h 71% 0.00in /  0mm
10:39 78.6 °F /  25.9 °C 68.0 °F /  20 °C 30.00in /  1015.8hPa WSW 5.0mph /  8km/h 10.0mph /  16.1km/h 70% 0.00in /  0mm
10:44 78.4 °F /  25.8 °C 67.8 °F /  19.9 °C 29.99in /  1015.5hPa WSW 5.0mph /  8km/h 9.0mph /  14.5km/h 70% 0.00in /  0mm
10:49 78.1 °F /  25.6 °C 67.1 °F /  19.5 °C 29.99in /  1015.5hPa SW 5.0mph /  8km/h 9.0mph /  14.5km/h 69% 0.00in /  0mm
10:54 77.2 °F /  25.1 °C 67.1 °F /  19.5 °C 29.99in /  1015.5hPa SW 4.0mph /  6.4km/h 9.0mph /  14.5km/h 71% 0.00in /  0mm
10:59 78.0 °F /  25.6 °C 69.0 °F /  20.6 °C 29.99in /  1015.5hPa South 4.0mph /  6.4km/h 8.0mph /  12.9km/h 74% 0.00in /  0mm
11:04 79.4 °F /  26.3 °C 68.8 °F /  20.4 °C 29.99in /  1015.5hPa SW 4.0mph /  6.4km/h 8.0mph /  12.9km/h 70% 0.00in /  0mm
11:09 79.5 °F /  26.4 °C 67.6 °F /  19.8 °C 29.99in /  1015.5hPa SW 4.0mph /  6.4km/h 7.0mph /  11.3km/h 67% 0.00in /  0mm
11:14 79.0 °F /  26.1 °C 68.0 °F /  20 °C 29.99in /  1015.5hPa SW 4.0mph /  6.4km/h 7.0mph /  11.3km/h 69% 0.00in /  0mm
11:19 79.1 °F /  26.2 °C 67.6 °F /  19.8 °C 29.98in /  1015.1hPa SW 2.0mph /  3.2km/h 7.0mph /  11.3km/h 68% 0.00in /  0mm
11:24 78.0 °F /  25.6 °C 67.0 °F /  19.4 °C 29.98in /  1015.1hPa SSW 3.0mph /  4.8km/h 7.0mph /  11.3km/h 69% 0.00in /  0mm
11:29 77.5 °F /  25.3 °C 67.4 °F /  19.7 °C 29.98in /  1015.1hPa WSW 2.0mph /  3.2km/h 8.0mph /  12.9km/h 71% 0.00in /  0mm
11:34 77.8 °F /  25.4 °C 67.6 °F /  19.8 °C 29.98in /  1015.1hPa WSW 3.0mph /  4.8km/h 8.0mph /  12.9km/h 71% 0.00in /  0mm
11:39 79.5 °F /  26.4 °C 68.9 °F /  20.5 °C 29.98in /  1015.1hPa WSW 4.0mph /  6.4km/h 9.0mph /  14.5km/h 70% 0.00in /  0mm
11:44 80.0 °F /  26.7 °C 68.5 °F /  20.3 °C 29.98in /  1015.1hPa WSW 4.0mph /  6.4km/h 9.0mph /  14.5km/h 68% 0.00in /  0mm
11:49 80.0 °F /  26.7 °C 68.1 °F /  20.1 °C 29.98in /  1015.1hPa WSW 3.0mph /  4.8km/h 8.0mph /  12.9km/h 67% 0.00in /  0mm
11:54 80.0 °F /  26.7 °C 68.1 °F /  20.1 °C 29.97in /  1014.8hPa SW 3.0mph /  4.8km/h 10.0mph /  16.1km/h 67% 0.00in /  0mm
11:59 80.0 °F /  26.7 °C 68.1 °F /  20.1 °C 29.98in /  1015.1hPa SW 3.0mph /  4.8km/h 9.0mph /  14.5km/h 67% 0.00in /  0mm
12:04 79.3 °F /  26.3 °C 67.8 °F /  19.9 °C 29.98in /  1015.1hPa WSW 3.0mph /  4.8km/h 9.0mph /  14.5km/h 68% 0.00in /  0mm
12:09 79.4 °F /  26.3 °C 68.3 °F /  20.2 °C 29.98in /  1015.1hPa WSW 4.0mph /  6.4km/h 7.0mph /  11.3km/h 69% 0.00in /  0mm
12:14 79.6 °F /  26.4 °C 68.1 °F /  20.1 °C 29.98in /  1015.1hPa SSW 5.0mph /  8km/h 9.0mph /  14.5km/h 68% 0.00in /  0mm
12:19 79.4 °F /  26.3 °C 67.9 °F /  19.9 °C 29.97in /  1014.8hPa SSW 4.0mph /  6.4km/h 9.0mph /  14.5km/h 68% 0.00in /  0mm
12:24 79.6 °F /  26.4 °C 68.1 °F /  20.1 °C 29.97in /  1014.8hPa SW 7.0mph /  11.3km/h 10.0mph /  16.1km/h 68% 0.00in /  0mm
12:29 79.3 °F /  26.3 °C 68.2 °F /  20.1 °C 29.97in /  1014.8hPa SW 4.0mph /  6.4km/h 9.0mph /  14.5km/h 69% 0.00in /  0mm
12:34 79.6 °F /  26.4 °C 68.1 °F /  20.1 °C 29.97in /  1014.8hPa WSW 5.0mph /  8km/h 12.0mph /  19.3km/h 68% 0.00in /  0mm
12:39 79.6 °F /  26.4 °C 67.7 °F /  19.8 °C 29.97in /  1014.8hPa WSW 4.0mph /  6.4km/h 12.0mph /  19.3km/h 67% 0.00in /  0mm
12:44 79.6 °F /  26.4 °C 67.7 °F /  19.8 °C 29.97in /  1014.8hPa WSW 4.0mph /  6.4km/h 8.0mph /  12.9km/h 67% 0.00in /  0mm
12:49 80.5 °F /  26.9 °C 69.0 °F /  20.6 °C 29.97in /  1014.8hPa SW 5.0mph /  8km/h 11.0mph /  17.7km/h 68% 0.00in /  0mm
12:54 81.0 °F /  27.2 °C 68.1 °F /  20.1 °C 29.97in /  1014.8hPa WSW 4.0mph /  6.4km/h 11.0mph /  17.7km/h 65% 0.00in /  0mm
12:59 81.1 °F /  27.3 °C 68.7 °F /  20.4 °C 29.96in /  1014.4hPa WSW 4.0mph /  6.4km/h 8.0mph /  12.9km/h 66% 0.00in /  0mm
13:04 81.5 °F /  27.5 °C 68.6 °F /  20.3 °C 29.96in /  1014.4hPa West 3.0mph /  4.8km/h 8.0mph /  12.9km/h 65% 0.00in /  0mm
13:09 82.4 °F /  28 °C 69.0 °F /  20.6 °C 29.96in /  1014.4hPa West 3.0mph /  4.8km/h 9.0mph /  14.5km/h 64% 0.00in /  0mm
13:14 83.0 °F /  28.3 °C 69.6 °F /  20.9 °C 29.96in /  1014.4hPa WSW 2.0mph /  3.2km/h 7.0mph /  11.3km/h 64% 0.00in /  0mm
13:19 83.7 °F /  28.7 °C 68.3 °F /  20.2 °C 29.96in /  1014.4hPa SW 3.0mph /  4.8km/h 10.0mph /  16.1km/h 60% 0.00in /  0mm
13:24 84.0 °F /  28.9 °C 67.6 °F /  19.8 °C 29.96in /  1014.4hPa West 4.0mph /  6.4km/h 8.0mph /  12.9km/h 58% 0.00in /  0mm
13:29 83.2 °F /  28.4 °C 66.9 °F /  19.4 °C 29.97in /  1014.8hPa SSW 4.0mph /  6.4km/h 7.0mph /  11.3km/h 58% 0.00in /  0mm
13:34 84.0 °F /  28.9 °C 66.6 °F /  19.2 °C 29.96in /  1014.4hPa WSW 4.0mph /  6.4km/h 9.0mph /  14.5km/h 56% 0.00in /  0mm
13:39 84.3 °F /  29.1 °C 66.4 °F /  19.1 °C 29.96in /  1014.4hPa West 4.0mph /  6.4km/h 9.0mph /  14.5km/h 55% 0.00in /  0mm
13:44 83.8 °F /  28.8 °C 65.9 °F /  18.8 °C 29.96in /  1014.4hPa WSW 4.0mph /  6.4km/h 12.0mph /  19.3km/h 55% 0.00in /  0mm
13:49 84.3 °F /  29.1 °C 65.3 °F /  18.5 °C 29.96in /  1014.4hPa WSW 4.0mph /  6.4km/h 12.0mph /  19.3km/h 53% 0.00in /  0mm
13:54 84.7 °F /  29.3 °C 65.1 °F /  18.4 °C 29.96in /  1014.4hPa WSW 4.0mph /  6.4km/h 10.0mph /  16.1km/h 52% 0.00in /  0mm
13:59 84.8 °F /  29.3 °C 62.9 °F /  17.2 °C 29.96in /  1014.4hPa WSW 4.0mph /  6.4km/h 9.0mph /  14.5km/h 48% 0.00in /  0mm
14:04 84.4 °F /  29.1 °C 64.3 °F /  17.9 °C 29.96in /  1014.4hPa WSW 5.0mph /  8km/h 6.0mph /  9.7km/h 51% 0.00in /  0mm
14:09 84.3 °F /  29.1 °C 63.1 °F /  17.3 °C 29.95in /  1014.1hPa WNW 3.0mph /  4.8km/h 10.0mph /  16.1km/h 49% 0.00in /  0mm
14:14 84.6 °F /  29.2 °C 63.9 °F /  17.7 °C 29.95in /  1014.1hPa WSW 4.0mph /  6.4km/h 9.0mph /  14.5km/h 50% 0.00in /  0mm
14:19 85.5 °F /  29.7 °C 63.0 °F /  17.2 °C 29.95in /  1014.1hPa West 2.0mph /  3.2km/h 8.0mph /  12.9km/h 47% 0.00in /  0mm
14:24 84.9 °F /  29.4 °C 64.2 °F /  17.9 °C 29.95in /  1014.1hPa West 2.0mph /  3.2km/h 10.0mph /  16.1km/h 50% 0.00in /  0mm
14:29 86.2 °F /  30.1 °C 63.0 °F /  17.2 °C 29.94in /  1013.8hPa West 3.0mph /  4.8km/h 9.0mph /  14.5km/h 46% 0.00in /  0mm
14:34 85.8 °F /  29.9 °C 61.4 °F /  16.3 °C 29.94in /  1013.8hPa WSW 3.0mph /  4.8km/h 7.0mph /  11.3km/h 44% 0.00in /  0mm
14:39 86.1 °F /  30.1 °C 62.3 °F /  16.8 °C 29.94in /  1013.8hPa SW 4.0mph /  6.4km/h 10.0mph /  16.1km/h 45% 0.00in /  0mm
14:44 86.2 °F /  30.1 °C 60.4 °F /  15.8 °C 29.94in /  1013.8hPa SW 4.0mph /  6.4km/h 10.0mph /  16.1km/h 42% 0.00in /  0mm
14:49 85.9 °F /  29.9 °C 62.7 °F /  17.1 °C 29.94in /  1013.8hPa WSW 4.0mph /  6.4km/h 7.0mph /  11.3km/h 46% 0.00in /  0mm
14:54 85.8 °F /  29.9 °C 57.3 °F /  14.1 °C 29.94in /  1013.8hPa West 3.0mph /  4.8km/h 9.0mph /  14.5km/h 38% 0.00in /  0mm
14:59 86.1 °F /  30.1 °C 61.6 °F /  16.4 °C 29.93in /  1013.4hPa West 4.0mph /  6.4km/h 6.0mph /  9.7km/h 44% 0.00in /  0mm
15:04 85.9 °F /  29.9 °C 60.8 °F /  16 °C 29.93in /  1013.4hPa WSW 7.0mph /  11.3km/h 10.0mph /  16.1km/h 43% 0.00in /  0mm
15:09 86.5 °F /  30.3 °C 60.0 °F /  15.6 °C 29.93in /  1013.4hPa WSW 4.0mph /  6.4km/h 10.0mph /  16.1km/h 41% 0.00in /  0mm
15:14 86.0 °F /  30 °C 60.9 °F /  16.1 °C 29.93in /  1013.4hPa WSW 5.0mph /  8km/h 9.0mph /  14.5km/h 43% 0.00in /  0mm
15:19 85.8 °F /  29.9 °C 61.4 °F /  16.3 °C 29.92in /  1013.1hPa WSW 7.0mph /  11.3km/h 9.0mph /  14.5km/h 44% 0.00in /  0mm
15:24 85.6 °F /  29.8 °C 61.8 °F /  16.6 °C 29.91in /  1012.8hPa WSW 3.0mph /  4.8km/h 9.0mph /  14.5km/h 45% 0.00in /  0mm
15:29 86.2 °F /  30.1 °C 60.4 °F /  15.8 °C 29.91in /  1012.8hPa WNW 3.0mph /  4.8km/h 7.0mph /  11.3km/h 42% 0.00in /  0mm
15:34 85.0 °F /  29.4 °C 60.6 °F /  15.9 °C 29.91in /  1012.8hPa WSW 4.0mph /  6.4km/h 10.0mph /  16.1km/h 44% 0.00in /  0mm
15:39 84.9 °F /  29.4 °C 59.9 °F /  15.5 °C 29.91in /  1012.8hPa WSW 4.0mph /  6.4km/h 10.0mph /  16.1km/h 43% 0.00in /  0mm
15:44 85.4 °F /  29.7 °C 61.0 °F /  16.1 °C 29.91in /  1012.8hPa WSW 4.0mph /  6.4km/h 9.0mph /  14.5km/h 44% 0.00in /  0mm
15:49 85.2 °F /  29.6 °C 61.5 °F /  16.4 °C 29.91in /  1012.8hPa West 4.0mph /  6.4km/h 10.0mph /  16.1km/h 45% 0.00in /  0mm
15:54 85.7 °F /  29.8 °C 61.3 °F /  16.3 °C 29.91in /  1012.8hPa WSW 7.0mph /  11.3km/h 10.0mph /  16.1km/h 44% 0.00in /  0mm
15:59 85.1 °F /  29.5 °C 62.6 °F /  17 °C 29.91in /  1012.8hPa South 4.0mph /  6.4km/h 8.0mph /  12.9km/h 47% 0.00in /  0mm
16:04 84.7 °F /  29.3 °C 61.0 °F /  16.1 °C 29.91in /  1012.8hPa SW 3.0mph /  4.8km/h 10.0mph /  16.1km/h 45% 0.00in /  0mm
16:09 84.8 °F /  29.3 °C 61.1 °F /  16.2 °C 29.91in /  1012.8hPa SW 5.0mph /  8km/h 10.0mph /  16.1km/h 45% 0.00in /  0mm
16:14 84.8 °F /  29.3 °C 62.3 °F /  16.8 °C 29.91in /  1012.8hPa WSW 5.0mph /  8km/h 10.0mph /  16.1km/h 47% 0.00in /  0mm
16:19 84.3 °F /  29.1 °C 61.9 °F /  16.6 °C 29.91in /  1012.8hPa WSW 5.0mph /  8km/h 10.0mph /  16.1km/h 47% 0.00in /  0mm
16:24 84.7 °F /  29.3 °C 62.8 °F /  17.1 °C 29.91in /  1012.8hPa WSW 3.0mph /  4.8km/h 8.0mph /  12.9km/h 48% 0.00in /  0mm
16:29 85.0 °F /  29.4 °C 64.3 °F /  17.9 °C 29.91in /  1012.8hPa West 3.0mph /  4.8km/h 9.0mph /  14.5km/h 50% 0.00in /  0mm
16:34 84.7 °F /  29.3 °C 61.6 °F /  16.4 °C 29.91in /  1012.8hPa SW 7.0mph /  11.3km/h 9.0mph /  14.5km/h 46% 0.00in /  0mm
16:39 84.4 °F /  29.1 °C 63.2 °F /  17.3 °C 29.90in /  1012.4hPa WSW 5.0mph /  8km/h 9.0mph /  14.5km/h 49% 0.00in /  0mm
16:44 84.3 °F /  29.1 °C 63.1 °F /  17.3 °C 29.90in /  1012.4hPa West 4.0mph /  6.4km/h 9.0mph /  14.5km/h 49% 0.00in /  0mm
16:49 83.9 °F /  28.8 °C 60.3 °F /  15.7 °C 29.90in /  1012.4hPa WSW 3.0mph /  4.8km/h 10.0mph /  16.1km/h 45% 0.00in /  0mm
16:54 84.0 °F /  28.9 °C 61.0 °F /  16.1 °C 29.90in /  1012.4hPa SSW 3.0mph /  4.8km/h 11.0mph /  17.7km/h 46% 0.00in /  0mm
16:59 84.0 °F /  28.9 °C 62.2 °F /  16.8 °C 29.89in /  1012.1hPa WNW 6.0mph /  9.7km/h 7.0mph /  11.3km/h 48% 0.00in /  0mm
17:04 83.6 °F /  28.7 °C 61.2 °F /  16.2 °C 29.89in /  1012.1hPa SW 4.0mph /  6.4km/h 10.0mph /  16.1km/h 47% 0.00in /  0mm
17:09 83.0 °F /  28.3 °C 61.9 °F /  16.6 °C 29.89in /  1012.1hPa WSW 5.0mph /  8km/h 10.0mph /  16.1km/h 49% 0.00in /  0mm
17:14 82.8 °F /  28.2 °C 62.3 °F /  16.8 °C 29.89in /  1012.1hPa WSW 4.0mph /  6.4km/h 9.0mph /  14.5km/h 50% 0.00in /  0mm
17:19 82.5 °F /  28.1 °C 61.4 °F /  16.3 °C 29.89in /  1012.1hPa WSW 5.0mph /  8km/h 9.0mph /  14.5km/h 49% 0.00in /  0mm
17:24 82.6 °F /  28.1 °C 62.6 °F /  17 °C 29.88in /  1011.7hPa SW 3.0mph /  4.8km/h 8.0mph /  12.9km/h 51% 0.00in /  0mm
17:29 82.6 °F /  28.1 °C 63.2 °F /  17.3 °C 29.88in /  1011.7hPa South 4.0mph /  6.4km/h 7.0mph /  11.3km/h 52% 0.00in /  0mm
17:34 82.6 °F /  28.1 °C 62.6 °F /  17 °C 29.88in /  1011.7hPa SW 3.0mph /  4.8km/h 9.0mph /  14.5km/h 51% 0.00in /  0mm
17:39 82.3 °F /  27.9 °C 62.9 °F /  17.2 °C 29.88in /  1011.7hPa West 3.0mph /  4.8km/h 7.0mph /  11.3km/h 52% 0.00in /  0mm
17:44 82.3 °F /  27.9 °C 63.5 °F /  17.5 °C 29.88in /  1011.7hPa WSW 4.0mph /  6.4km/h 7.0mph /  11.3km/h 53% 0.00in /  0mm
17:49 81.8 °F /  27.7 °C 63.0 °F /  17.2 °C 29.88in /  1011.7hPa SW 5.0mph /  8km/h 6.0mph /  9.7km/h 53% 0.00in /  0mm
17:54 81.7 °F /  27.6 °C 62.9 °F /  17.2 °C 29.88in /  1011.7hPa WSW 3.0mph /  4.8km/h 6.0mph /  9.7km/h 53% 0.00in /  0mm
17:59 81.6 °F /  27.6 °C 63.9 °F /  17.7 °C 29.88in /  1011.7hPa WSW 1.0mph /  1.6km/h 7.0mph /  11.3km/h 55% 0.00in /  0mm
18:04 81.7 °F /  27.6 °C 63.4 °F /  17.4 °C 29.88in /  1011.7hPa WSW 3.0mph /  4.8km/h 7.0mph /  11.3km/h 54% 0.00in /  0mm
18:09 81.5 °F /  27.5 °C 63.8 °F /  17.7 °C 29.88in /  1011.7hPa WSW 3.0mph /  4.8km/h 6.0mph /  9.7km/h 55% 0.00in /  0mm
18:14 81.2 °F /  27.3 °C 63.5 °F /  17.5 °C 29.87in /  1011.4hPa WSW 4.0mph /  6.4km/h 6.0mph /  9.7km/h 55% 0.00in /  0mm
18:19 80.9 °F /  27.2 °C 63.2 °F /  17.3 °C 29.87in /  1011.4hPa WSW 3.0mph /  4.8km/h 6.0mph /  9.7km/h 55% 0.00in /  0mm
18:24 81.0 °F /  27.2 °C 63.3 °F /  17.4 °C 29.87in /  1011.4hPa WSW 3.0mph /  4.8km/h 6.0mph /  9.7km/h 55% 0.00in /  0mm
18:29 80.8 °F /  27.1 °C 62.6 °F /  17 °C 29.87in /  1011.4hPa WNW 1.0mph /  1.6km/h 6.0mph /  9.7km/h 54% 0.00in /  0mm
18:34 80.8 °F /  27.1 °C 62.1 °F /  16.7 °C 29.87in /  1011.4hPa West 2.0mph /  3.2km/h 6.0mph /  9.7km/h 53% 0.00in /  0mm
18:39 80.6 °F /  27 °C 62.4 °F /  16.9 °C 29.87in /  1011.4hPa WSW 2.0mph /  3.2km/h 6.0mph /  9.7km/h 54% 0.00in /  0mm
18:44 80.4 °F /  26.9 °C 61.7 °F /  16.5 °C 29.87in /  1011.4hPa WSW 7.0mph /  11.3km/h 9.0mph /  14.5km/h 53% 0.00in /  0mm
18:49 80.2 °F /  26.8 °C 62.0 °F /  16.7 °C 29.88in /  1011.7hPa West 5.0mph /  8km/h 7.0mph /  11.3km/h 54% 0.00in /  0mm
18:54 80.0 °F /  26.7 °C 61.9 °F /  16.6 °C 29.88in /  1011.7hPa West 5.0mph /  8km/h 7.0mph /  11.3km/h 54% 0.00in /  0mm
18:59 80.0 °F /  26.7 °C 62.9 °F /  17.2 °C 29.88in /  1011.7hPa SW 2.0mph /  3.2km/h 6.0mph /  9.7km/h 56% 0.00in /  0mm
19:04 79.8 °F /  26.6 °C 62.2 °F /  16.8 °C 29.88in /  1011.7hPa WSW 3.0mph /  4.8km/h 7.0mph /  11.3km/h 55% 0.00in /  0mm
19:09 79.5 °F /  26.4 °C 61.9 °F /  16.6 °C 29.88in /  1011.7hPa SW 3.0mph /  4.8km/h 7.0mph /  11.3km/h 55% 0.00in /  0mm
19:14 79.2 °F /  26.2 °C 62.1 °F /  16.7 °C 29.88in /  1011.7hPa SW 3.0mph /  4.8km/h 7.0mph /  11.3km/h 56% 0.00in /  0mm
19:19 78.9 °F /  26.1 °C 61.9 °F /  16.6 °C 29.88in /  1011.7hPa WSW 3.0mph /  4.8km/h 8.0mph /  12.9km/h 56% 0.00in /  0mm
19:24 78.7 °F /  25.9 °C 61.7 °F /  16.5 °C 29.88in /  1011.7hPa SW 4.0mph /  6.4km/h 9.0mph /  14.5km/h 56% 0.00in /  0mm
19:29 78.5 °F /  25.8 °C 62.0 °F /  16.7 °C 29.88in /  1011.7hPa SW 4.0mph /  6.4km/h 9.0mph /  14.5km/h 57% 0.00in /  0mm
19:34 78.4 °F /  25.8 °C 62.4 °F /  16.9 °C 29.88in /  1011.7hPa WSW 4.0mph /  6.4km/h 6.0mph /  9.7km/h 58% 0.00in /  0mm
19:39 78.3 °F /  25.7 °C 62.8 °F /  17.1 °C 29.88in /  1011.7hPa SW 3.0mph /  4.8km/h 6.0mph /  9.7km/h 59% 0.00in /  0mm
19:44 78.2 °F /  25.7 °C 62.2 °F /  16.8 °C 29.88in /  1011.7hPa SW 4.0mph /  6.4km/h 7.0mph /  11.3km/h 58% 0.00in /  0mm
19:49 78.0 °F /  25.6 °C 62.5 °F /  16.9 °C 29.88in /  1011.7hPa WSW 3.0mph /  4.8km/h 6.0mph /  9.7km/h 59% 0.00in /  0mm
19:54 78.0 °F /  25.6 °C 62.5 °F /  16.9 °C 29.88in /  1011.7hPa West 4.0mph /  6.4km/h 5.0mph /  8km/h 59% 0.00in /  0mm
19:59 77.8 °F /  25.4 °C 62.3 °F /  16.8 °C 29.88in /  1011.7hPa WSW 2.0mph /  3.2km/h 5.0mph /  8km/h 59% 0.00in /  0mm
20:04 77.6 °F /  25.3 °C 62.6 °F /  17 °C 29.88in /  1011.7hPa WSW 3.0mph /  4.8km/h 7.0mph /  11.3km/h 60% 0.00in /  0mm
20:09 77.5 °F /  25.3 °C 62.5 °F /  16.9 °C 29.88in /  1011.7hPa SW 3.0mph /  4.8km/h 7.0mph /  11.3km/h 60% 0.00in /  0mm
20:14 77.4 °F /  25.2 °C 62.9 °F /  17.2 °C 29.87in /  1011.4hPa SW 4.0mph /  6.4km/h 7.0mph /  11.3km/h 61% 0.00in /  0mm
20:19 77.2 °F /  25.1 °C 62.7 °F /  17.1 °C 29.87in /  1011.4hPa SW 4.0mph /  6.4km/h 9.0mph /  14.5km/h 61% 0.00in /  0mm
20:24 77.1 °F /  25.1 °C 62.6 °F /  17 °C 29.87in /  1011.4hPa SW 4.0mph /  6.4km/h 9.0mph /  14.5km/h 61% 0.00in /  0mm
20:29 77.0 °F /  25 °C 62.5 °F /  16.9 °C 29.87in /  1011.4hPa SW 3.0mph /  4.8km/h 9.0mph /  14.5km/h 61% 0.00in /  0mm
20:34 76.8 °F /  24.9 °C 61.9 °F /  16.6 °C 29.87in /  1011.4hPa WSW 1.0mph /  1.6km/h 6.0mph /  9.7km/h 60% 0.00in /  0mm
20:39 76.8 °F /  24.9 °C 62.3 °F /  16.8 °C 29.87in /  1011.4hPa South 2.0mph /  3.2km/h 6.0mph /  9.7km/h 61% 0.00in /  0mm
20:44 76.5 °F /  24.7 °C 62.5 °F /  16.9 °C 29.87in /  1011.4hPa South 4.0mph /  6.4km/h 6.0mph /  9.7km/h 62% 0.00in /  0mm
20:49 76.2 °F /  24.6 °C 63.1 °F /  17.3 °C 29.87in /  1011.4hPa SW 3.0mph /  4.8km/h 7.0mph /  11.3km/h 64% 0.00in /  0mm
20:54 75.9 °F /  24.4 °C 62.8 °F /  17.1 °C 29.87in /  1011.4hPa WSW 1.0mph /  1.6km/h 6.0mph /  9.7km/h 64% 0.00in /  0mm
20:59 75.7 °F /  24.3 °C 63.1 °F /  17.3 °C 29.87in /  1011.4hPa South 1.0mph /  1.6km/h 5.0mph /  8km/h 65% 0.00in /  0mm
21:04 75.5 °F /  24.2 °C 62.5 °F /  16.9 °C 29.87in /  1011.4hPa SW 3.0mph /  4.8km/h 7.0mph /  11.3km/h 64% 0.00in /  0mm
21:09 75.5 °F /  24.2 °C 62.9 °F /  17.2 °C 29.88in /  1011.7hPa SW 3.0mph /  4.8km/h 7.0mph /  11.3km/h 65% 0.00in /  0mm
21:14 75.5 °F /  24.2 °C 62.9 °F /  17.2 °C 29.88in /  1011.7hPa SW 3.0mph /  4.8km/h 5.0mph /  8km/h 65% 0.00in /  0mm
21:19 75.5 °F /  24.2 °C 62.9 °F /  17.2 °C 29.88in /  1011.7hPa SW 2.0mph /  3.2km/h 5.0mph /  8km/h 65% 0.00in /  0mm
21:24 75.5 °F /  24.2 °C 62.9 °F /  17.2 °C 29.88in /  1011.7hPa SSE 1.0mph /  1.6km/h 5.0mph /  8km/h 65% 0.00in /  0mm
21:29 75.3 °F /  24.1 °C 61.8 °F /  16.6 °C 29.88in /  1011.7hPa SW 2.0mph /  3.2km/h 6.0mph /  9.7km/h 63% 0.00in /  0mm
21:34 75.2 °F /  24 °C 61.7 °F /  16.5 °C 29.88in /  1011.7hPa SW 2.0mph /  3.2km/h 6.0mph /  9.7km/h 63% 0.00in /  0mm
21:39 75.1 °F /  23.9 °C 61.2 °F /  16.2 °C 29.88in /  1011.7hPa SW 2.0mph /  3.2km/h 5.0mph /  8km/h 62% 0.00in /  0mm
21:44 75.2 °F /  24 °C 61.3 °F /  16.3 °C 29.88in /  1011.7hPa WSW 3.0mph /  4.8km/h 5.0mph /  8km/h 62% 0.00in /  0mm
21:49 75.1 °F /  23.9 °C 61.2 °F /  16.2 °C 29.88in /  1011.7hPa SW 2.0mph /  3.2km/h 6.0mph /  9.7km/h 62% 0.00in /  0mm
21:54 74.9 °F /  23.8 °C 61.0 °F /  16.1 °C 29.88in /  1011.7hPa SW 1.0mph /  1.6km/h 4.0mph /  6.4km/h 62% 0.00in /  0mm
21:59 74.6 °F /  23.7 °C 61.2 °F /  16.2 °C 29.88in /  1011.7hPa SW 1.0mph /  1.6km/h 3.0mph /  4.8km/h 63% 0.00in /  0mm
22:04 74.6 °F /  23.7 °C 61.2 °F /  16.2 °C 29.88in /  1011.7hPa SW 2.0mph /  3.2km/h 5.0mph /  8km/h 63% 0.00in /  0mm
22:09 74.7 °F /  23.7 °C 61.3 °F /  16.3 °C 29.89in /  1012.1hPa SW 1.0mph /  1.6km/h 5.0mph /  8km/h 63% 0.00in /  0mm
22:14 74.8 °F /  23.8 °C 61.4 °F /  16.3 °C 29.89in /  1012.1hPa SW 1.0mph /  1.6km/h 3.0mph /  4.8km/h 63% 0.00in /  0mm
22:19 74.9 °F /  23.8 °C 61.5 °F /  16.4 °C 29.88in /  1011.7hPa SW 1.0mph /  1.6km/h 3.0mph /  4.8km/h 63% 0.00in /  0mm
22:24 74.9 °F /  23.8 °C 61.0 °F /  16.1 °C 29.88in /  1011.7hPa SW 1.0mph /  1.6km/h 5.0mph /  8km/h 62% 0.00in /  0mm
22:29 74.8 °F /  23.8 °C 60.9 °F /  16.1 °C 29.88in /  1011.7hPa SW 2.0mph /  3.2km/h 6.0mph /  9.7km/h 62% 0.00in /  0mm
22:34 74.7 °F /  23.7 °C 60.4 °F /  15.8 °C 29.87in /  1011.4hPa SSW 2.0mph /  3.2km/h 7.0mph /  11.3km/h 61% 0.00in /  0mm
22:39 74.6 °F /  23.7 °C 59.8 °F /  15.4 °C 29.87in /  1011.4hPa SSW 3.0mph /  4.8km/h 7.0mph /  11.3km/h 60% 0.00in /  0mm
22:44 74.6 °F /  23.7 °C 59.8 °F /  15.4 °C 29.87in /  1011.4hPa SSW 3.0mph /  4.8km/h 7.0mph /  11.3km/h 60% 0.00in /  0mm
22:49 74.5 °F /  23.6 °C 59.7 °F /  15.4 °C 29.87in /  1011.4hPa SW 2.0mph /  3.2km/h 6.0mph /  9.7km/h 60% 0.00in /  0mm
22:54 74.5 °F /  23.6 °C 59.7 °F /  15.4 °C 29.86in /  1011.1hPa SSW 2.0mph /  3.2km/h 5.0mph /  8km/h 60% 0.00in /  0mm
22:59 74.3 °F /  23.5 °C 60.0 °F /  15.6 °C 29.86in /  1011.1hPa SSW 1.0mph /  1.6km/h 5.0mph /  8km/h 61% 0.00in /  0mm
23:04 74.1 °F /  23.4 °C 59.8 °F /  15.4 °C 29.87in /  1011.4hPa SW 1.0mph /  1.6km/h 2.0mph /  3.2km/h 61% 0.00in /  0mm
23:09 73.8 °F /  23.2 °C 59.5 °F /  15.3 °C 29.87in /  1011.4hPa SW 2.0mph /  3.2km/h 3.0mph /  4.8km/h 61% 0.00in /  0mm
23:14 73.7 °F /  23.2 °C 59.9 °F /  15.5 °C 29.87in /  1011.4hPa SW 1.0mph /  1.6km/h 5.0mph /  8km/h 62% 0.00in /  0mm
23:19 73.6 °F /  23.1 °C 59.3 °F /  15.2 °C 29.86in /  1011.1hPa WSW 2.0mph /  3.2km/h 3.0mph /  4.8km/h 61% 0.00in /  0mm
23:24 73.7 °F /  23.2 °C 59.4 °F /  15.2 °C 29.86in /  1011.1hPa WSW 1.0mph /  1.6km/h 3.0mph /  4.8km/h 61% 0.00in /  0mm
23:29 73.9 °F /  23.3 °C 59.6 °F /  15.3 °C 29.85in /  1010.7hPa WSW 1.0mph /  1.6km/h 3.0mph /  4.8km/h 61% 0.00in /  0mm
23:34 73.7 °F /  23.2 °C 59.9 °F /  15.5 °C 29.85in /  1010.7hPa Calm   3.0mph /  4.8km/h 62% 0.00in /  0mm
23:39 73.4 °F /  23 °C 59.6 °F /  15.3 °C 29.85in /  1010.7hPa Calm     62% 0.00in /  0mm
23:44 73.4 °F /  23 °C 60.0 °F /  15.6 °C 29.86in /  1011.1hPa Calm     63% 0.00in /  0mm
23:49 73.6 °F /  23.1 °C 60.2 °F /  15.7 °C 29.86in /  1011.1hPa Calm     63% 0.00in /  0mm
23:54 73.7 °F /  23.2 °C 60.3 °F /  15.7 °C 29.86in /  1011.1hPa Calm     63% 0.00in /  0mm
23:59 73.9 °F /  23.3 °C 60.5 °F /  15.8 °C 29.86in /  1011.1hPa Calm     63% 0.00in /  0mm
Buffalo, New York, USA
Compliments of Weather Underground - 2.5 mb